createdAt,value
2023-05-23T00:01:31.332Z,5.50
2023-05-23T00:03:59.419Z,6.13
2023-05-23T00:06:27.442Z,6.70
2023-05-23T00:08:55.690Z,5.43
2023-05-23T00:11:27.114Z,6.20
2023-05-23T00:13:55.416Z,6.37
2023-05-23T00:16:23.799Z,6.20
2023-05-23T00:18:51.796Z,5.73
2023-05-23T00:21:20.212Z,5.70
2023-05-23T00:23:48.024Z,5.20
2023-05-23T00:26:15.882Z,6.60
2023-05-23T00:28:45.055Z,5.80
2023-05-23T00:31:12.886Z,5.37
2023-05-23T00:33:40.843Z,6.57
2023-05-23T00:36:09.077Z,5.90
2023-05-23T00:38:36.952Z,5.80
2023-05-23T00:41:04.906Z,5.47
2023-05-23T00:43:32.731Z,5.30
2023-05-23T00:46:02.173Z,5.43
2023-05-23T00:48:30.391Z,5.70
2023-05-23T00:50:58.584Z,4.90
2023-05-23T00:53:27.362Z,5.40
2023-05-23T00:55:55.437Z,5.90
2023-05-23T00:58:23.359Z,6.00
2023-05-23T01:00:54.325Z,5.50
2023-05-23T01:03:23.878Z,5.27
2023-05-23T01:05:52.816Z,5.60
2023-05-23T01:08:20.637Z,5.93
2023-05-23T01:10:48.538Z,4.90
2023-05-23T01:13:31.646Z,6.20
2023-05-23T01:16:07.225Z,5.47
2023-05-23T01:18:41.387Z,5.03
2023-05-23T01:21:15.948Z,5.77
2023-05-23T01:24:21.500Z,5.67
2023-05-23T01:27:03.978Z,5.70
2023-05-23T01:29:38.378Z,5.93
2023-05-23T01:32:11.522Z,5.80
2023-05-23T01:34:40.806Z,4.80
2023-05-23T01:37:10.499Z,6.40
2023-05-23T01:39:38.553Z,6.17
2023-05-23T01:42:07.217Z,7.93
2023-05-23T01:44:37.188Z,6.87
2023-05-23T01:47:06.683Z,6.50
2023-05-23T01:49:36.276Z,5.80
2023-05-23T01:52:05.398Z,6.27
2023-05-23T01:54:35.193Z,6.33
2023-05-23T01:57:03.677Z,5.70
2023-05-23T01:59:31.581Z,6.20
2023-05-23T02:02:01.206Z,7.67
2023-05-23T02:04:29.549Z,6.60
2023-05-23T02:06:57.351Z,7.53
2023-05-23T02:09:25.334Z,6.10
2023-05-23T02:11:53.363Z,6.20
2023-05-23T02:14:21.975Z,6.53
2023-05-23T02:16:49.800Z,6.43
2023-05-23T02:19:19.123Z,6.20
2023-05-23T02:21:47.039Z,6.13
2023-05-23T02:24:14.818Z,5.63
2023-05-23T02:26:42.707Z,6.77
2023-05-23T02:29:10.558Z,7.30
2023-05-23T02:31:38.532Z,6.33
2023-05-23T02:34:06.441Z,6.43
2023-05-23T02:36:37.103Z,7.20
2023-05-23T02:39:05.492Z,6.50
2023-05-23T02:41:33.337Z,6.33
2023-05-23T02:44:01.122Z,7.73
2023-05-23T02:46:29.039Z,6.70
2023-05-23T02:48:56.910Z,6.80
2023-05-23T02:51:24.781Z,7.73
2023-05-23T02:53:53.932Z,7.00
2023-05-23T02:56:22.344Z,6.50
2023-05-23T02:58:50.387Z,10.40
2023-05-23T03:01:18.697Z,8.30
2023-05-23T03:03:46.588Z,8.57
2023-05-23T03:06:14.723Z,8.90
2023-05-23T03:08:43.375Z,8.20
2023-05-23T03:11:12.540Z,8.40
2023-05-23T03:13:40.333Z,9.30
2023-05-23T03:16:08.389Z,8.30
2023-05-23T03:18:36.278Z,7.83
2023-05-23T03:21:04.339Z,8.53
2023-05-23T03:23:32.128Z,8.60
2023-05-23T03:26:00.671Z,8.80
2023-05-23T03:28:29.932Z,8.33
2023-05-23T03:30:57.807Z,8.83
2023-05-23T03:33:25.837Z,7.13
2023-05-23T03:35:53.751Z,9.17
2023-05-23T03:38:21.713Z,8.67
2023-05-23T03:40:49.506Z,7.40
2023-05-23T03:43:17.349Z,8.70
2023-05-23T03:45:46.599Z,7.53
2023-05-23T03:48:14.550Z,7.60
2023-05-23T03:50:42.374Z,8.50
2023-05-23T03:53:10.212Z,8.40
2023-05-23T03:55:38.089Z,7.67
2023-05-23T03:58:06.196Z,7.90
2023-05-23T04:00:34.011Z,9.20
2023-05-23T04:03:03.371Z,8.27
2023-05-23T04:05:31.379Z,8.63
2023-05-23T04:08:01.619Z,8.50
2023-05-23T04:10:29.438Z,9.00
2023-05-23T04:12:57.358Z,8.27
2023-05-23T04:15:25.752Z,8.20
2023-05-23T04:17:53.578Z,9.03
2023-05-23T04:20:23.016Z,8.40
2023-05-23T04:22:50.837Z,8.20
2023-05-23T04:25:20.267Z,8.00
2023-05-23T04:27:48.255Z,8.67
2023-05-23T04:30:17.858Z,8.47
2023-05-23T04:32:46.028Z,7.83
2023-05-23T04:35:14.500Z,9.40
2023-05-23T04:37:45.455Z,8.43
2023-05-23T04:40:14.422Z,10.23
2023-05-23T04:42:44.509Z,9.27
2023-05-23T04:45:12.665Z,9.00
2023-05-23T04:47:42.015Z,9.37
2023-05-23T04:50:10.712Z,8.87
2023-05-23T04:52:38.510Z,8.63
2023-05-23T04:55:08.809Z,9.20
2023-05-23T04:57:37.168Z,8.63
2023-05-23T05:00:10.322Z,9.20
2023-05-23T05:02:38.630Z,9.20
2023-05-23T05:05:07.276Z,9.03
2023-05-23T05:07:35.893Z,9.90
2023-05-23T05:10:03.886Z,9.63
2023-05-23T05:12:32.988Z,9.97
2023-05-23T05:15:00.747Z,10.33
2023-05-23T05:17:29.982Z,9.87
2023-05-23T05:19:57.811Z,8.93
2023-05-23T05:22:25.691Z,9.77
2023-05-23T05:24:53.528Z,9.47
2023-05-23T05:27:21.450Z,10.57
2023-05-23T05:29:51.147Z,9.37
2023-05-23T05:32:19.006Z,9.40
2023-05-23T05:34:49.301Z,8.90
2023-05-23T05:37:17.733Z,9.60
2023-05-23T05:39:45.585Z,8.70
2023-05-23T05:42:13.361Z,9.40
2023-05-23T05:44:41.139Z,10.53
2023-05-23T05:47:10.280Z,9.83
2023-05-23T05:49:38.030Z,10.13
2023-05-23T05:52:06.863Z,10.73
2023-05-23T05:54:35.147Z,10.77
2023-05-23T05:57:02.956Z,10.20
2023-05-23T05:59:32.531Z,10.63
2023-05-23T06:02:00.815Z,10.60
2023-05-23T06:04:29.991Z,10.63
2023-05-23T06:06:57.871Z,9.30
2023-05-23T06:09:25.676Z,10.33
2023-05-23T06:11:53.547Z,10.07
2023-05-23T06:14:21.329Z,9.63
2023-05-23T06:16:49.697Z,10.07
2023-05-23T06:19:17.535Z,11.47
2023-05-23T06:21:46.689Z,10.70
2023-05-23T06:24:14.478Z,10.37
2023-05-23T06:26:42.275Z,10.40
2023-05-23T06:29:10.163Z,11.07
2023-05-23T06:31:37.972Z,11.43
2023-05-23T06:34:05.804Z,11.30
2023-05-23T06:36:33.595Z,10.43
2023-05-23T06:39:02.749Z,11.83
2023-05-23T06:41:30.547Z,12.03
2023-05-23T06:43:58.324Z,11.37
2023-05-23T06:46:26.390Z,11.47
2023-05-23T06:49:06.572Z,11.50
2023-05-23T06:51:42.104Z,12.70
2023-05-23T06:54:11.358Z,11.87
2023-05-23T06:56:39.151Z,11.23
2023-05-23T06:59:06.956Z,12.17
2023-05-23T07:01:34.828Z,12.67
2023-05-23T07:04:02.694Z,13.20
2023-05-23T07:06:31.249Z,11.90
2023-05-23T07:08:59.092Z,12.90
2023-05-23T07:11:28.242Z,13.50
2023-05-23T07:13:56.111Z,14.00
2023-05-23T07:16:24.030Z,13.40
2023-05-23T07:18:51.954Z,12.80
2023-05-23T07:21:19.793Z,12.57
2023-05-23T07:23:47.611Z,12.60
2023-05-23T07:26:15.499Z,12.63
2023-05-23T07:28:44.718Z,12.80
2023-05-23T07:31:13.511Z,12.60
2023-05-23T07:33:41.436Z,13.73
2023-05-23T07:36:10.027Z,12.13
2023-05-23T07:38:37.902Z,12.80
2023-05-23T07:41:11.438Z,12.67
2023-05-23T07:43:40.035Z,13.90
2023-05-23T07:46:09.253Z,12.80
2023-05-23T07:48:37.098Z,13.03
2023-05-23T07:51:05.193Z,12.43
2023-05-23T07:53:33.002Z,13.20
2023-05-23T07:56:00.810Z,13.40
2023-05-23T07:58:28.624Z,12.40
2023-05-23T08:00:57.919Z,12.30
2023-05-23T08:03:27.142Z,13.57
2023-05-23T08:05:54.980Z,13.10
2023-05-23T08:08:22.779Z,13.33
2023-05-23T08:10:50.757Z,13.53
2023-05-23T08:13:18.615Z,12.37
2023-05-23T08:15:46.452Z,13.43
2023-05-23T08:18:14.410Z,13.67
2023-05-23T08:20:43.829Z,13.13
2023-05-23T08:23:12.454Z,14.67
2023-05-23T08:25:40.554Z,14.10
2023-05-23T08:28:08.345Z,14.10
2023-05-23T08:30:36.677Z,13.53
2023-05-23T08:33:05.084Z,13.77
2023-05-23T08:35:35.287Z,12.80
2023-05-23T08:38:07.907Z,12.60
2023-05-23T08:40:37.670Z,12.80
2023-05-23T08:43:06.005Z,13.23
2023-05-23T08:45:34.496Z,12.27
2023-05-23T08:48:03.743Z,13.03
2023-05-23T08:50:31.987Z,13.80
2023-05-23T08:53:01.141Z,10.77
2023-05-23T08:55:31.501Z,12.43
2023-05-23T08:58:00.307Z,14.37
2023-05-23T09:00:29.303Z,12.57
2023-05-23T09:02:58.383Z,11.53
2023-05-23T09:05:27.716Z,13.47
2023-05-23T09:07:56.695Z,11.33
2023-05-23T09:10:24.854Z,12.37
2023-05-23T09:12:54.018Z,12.63
2023-05-23T09:15:23.848Z,14.03
2023-05-23T09:17:51.701Z,12.70
2023-05-23T09:20:19.696Z,13.10
2023-05-23T09:22:48.742Z,13.00
2023-05-23T09:25:16.974Z,12.30
2023-05-23T09:27:47.740Z,12.20
2023-05-23T09:30:19.880Z,13.40
2023-05-23T09:33:03.888Z,12.63
2023-05-23T09:35:33.518Z,12.87
2023-05-23T09:38:01.497Z,13.97
2023-05-23T09:40:33.134Z,13.97
2023-05-23T09:43:04.994Z,13.23
2023-05-23T09:45:34.951Z,12.93
2023-05-23T09:48:02.855Z,13.30
2023-05-23T09:50:34.725Z,13.00
2023-05-23T09:53:02.660Z,14.63
2023-05-23T09:55:30.722Z,13.97
2023-05-23T09:58:00.666Z,13.50
2023-05-23T10:00:28.868Z,13.43
2023-05-23T10:03:05.922Z,13.77
2023-05-23T10:05:38.368Z,14.40
2023-05-23T10:08:10.659Z,13.50
2023-05-23T10:11:23.455Z,14.50
2023-05-23T10:13:53.186Z,13.10
2023-05-23T10:16:27.912Z,13.20
2023-05-23T10:19:00.260Z,13.27
2023-05-23T10:21:34.126Z,13.83
2023-05-23T10:24:04.771Z,15.03
2023-05-23T10:26:32.901Z,13.10
2023-05-23T10:29:02.280Z,12.70
2023-05-23T10:31:31.080Z,12.57
2023-05-23T10:34:09.463Z,12.30
2023-05-23T10:36:45.928Z,12.07
2023-05-23T10:39:20.477Z,11.70
2023-05-23T10:41:56.331Z,11.70
2023-05-23T10:44:27.989Z,11.53
2023-05-23T10:46:58.157Z,11.00
2023-05-23T10:49:41.125Z,11.47
2023-05-23T10:52:10.645Z,9.77
2023-05-23T10:54:43.916Z,11.30
2023-05-23T10:57:12.604Z,10.80
2023-05-23T10:59:41.013Z,9.90
2023-05-23T11:02:15.036Z,11.43
2023-05-23T11:04:44.681Z,9.67
2023-05-23T11:07:31.887Z,11.53
2023-05-23T11:10:11.095Z,9.73
2023-05-23T11:12:40.270Z,10.60
2023-05-23T11:15:23.886Z,10.23
2023-05-23T11:17:53.760Z,9.80
2023-05-23T11:20:27.501Z,9.53
2023-05-23T11:22:56.637Z,11.27
2023-05-23T11:25:41.823Z,9.60
2023-05-23T11:28:10.564Z,10.50
2023-05-23T11:30:39.424Z,10.27
2023-05-23T11:33:13.617Z,9.87
2023-05-23T11:35:43.761Z,10.27
2023-05-23T11:38:12.562Z,9.43
2023-05-23T11:40:42.385Z,9.57
2023-05-23T11:43:12.820Z,10.30
2023-05-23T11:45:41.159Z,10.27
2023-05-23T11:48:09.913Z,10.57
2023-05-23T11:50:47.477Z,10.40
2023-05-23T11:53:17.606Z,9.63
2023-05-23T11:55:53.241Z,9.67
2023-05-23T11:58:22.669Z,10.40
2023-05-23T12:00:52.274Z,10.37
2023-05-23T12:03:22.680Z,9.80
2023-05-23T12:05:52.089Z,9.67
2023-05-23T12:08:19.903Z,10.87
2023-05-23T12:10:52.728Z,10.07
2023-05-23T12:13:20.993Z,9.90
2023-05-23T12:15:49.453Z,9.60
2023-05-23T12:18:20.061Z,9.43
2023-05-23T12:20:50.223Z,9.53
2023-05-23T12:23:23.318Z,9.50
2023-05-23T12:25:52.709Z,9.80
2023-05-23T12:28:20.578Z,9.10
2023-05-23T12:30:49.444Z,9.60
2023-05-23T12:33:19.688Z,9.50
2023-05-23T12:35:47.629Z,8.17
2023-05-23T12:38:18.676Z,11.10
2023-05-23T12:40:47.875Z,8.90
2023-05-23T12:43:16.853Z,8.57
2023-05-23T12:45:44.712Z,9.20
2023-05-23T12:48:12.710Z,9.77
2023-05-23T12:50:40.539Z,9.03
2023-05-23T12:53:08.450Z,9.63
2023-05-23T12:55:36.388Z,8.30
2023-05-23T12:58:05.673Z,9.27
2023-05-23T13:00:33.773Z,8.20
2023-05-23T13:03:01.633Z,8.80
2023-05-23T13:05:29.527Z,9.73
2023-05-23T13:07:59.380Z,9.27
2023-05-23T13:10:28.939Z,8.40
2023-05-23T13:12:58.010Z,8.47
2023-05-23T13:15:27.153Z,7.00
2023-05-23T13:17:55.038Z,8.30
2023-05-23T13:20:22.852Z,8.50
2023-05-23T13:22:50.779Z,6.93
2023-05-23T13:25:18.735Z,6.93
2023-05-23T13:27:48.756Z,7.97
2023-05-23T13:30:17.214Z,8.80
2023-05-23T13:32:47.525Z,8.20
2023-05-23T13:35:16.248Z,9.03
2023-05-23T13:37:44.331Z,9.27
2023-05-23T13:40:17.587Z,8.40
2023-05-23T13:42:45.826Z,8.93
2023-05-23T13:45:13.645Z,9.27
2023-05-23T13:47:41.571Z,8.53
2023-05-23T13:50:11.861Z,7.60
2023-05-23T13:52:42.919Z,7.20
2023-05-23T13:55:12.155Z,8.00
2023-05-23T13:57:39.995Z,6.97
2023-05-23T14:00:09.423Z,7.07
2023-05-23T14:02:37.286Z,8.17
2023-05-23T14:05:07.190Z,7.87
2023-05-23T14:07:37.214Z,7.23
2023-05-23T14:10:07.033Z,7.50
2023-05-23T14:12:34.852Z,6.47
2023-05-23T14:15:02.670Z,7.03
2023-05-23T14:17:30.563Z,7.40
2023-05-23T14:19:58.733Z,6.93
2023-05-23T14:22:26.587Z,6.30
2023-05-23T14:24:55.781Z,6.70
2023-05-23T14:27:23.561Z,6.87
2023-05-23T14:29:51.407Z,6.60
2023-05-23T14:32:19.471Z,7.20
2023-05-23T14:34:47.365Z,7.60
2023-05-23T14:37:15.188Z,7.03
2023-05-23T14:39:43.118Z,7.20
2023-05-23T14:42:12.359Z,6.30
2023-05-23T14:44:40.146Z,6.37
2023-05-23T14:47:08.050Z,6.17
2023-05-23T14:49:35.852Z,6.90
2023-05-23T14:52:03.760Z,6.80
2023-05-23T14:54:31.576Z,7.07
2023-05-23T14:56:59.404Z,6.73
2023-05-23T14:59:29.064Z,6.50
2023-05-23T15:01:56.946Z,6.80
2023-05-23T15:04:25.117Z,6.70
2023-05-23T15:06:53.279Z,7.03
2023-05-23T15:09:21.100Z,6.30
2023-05-23T15:11:49.443Z,7.60
2023-05-23T15:14:17.324Z,6.50
2023-05-23T15:16:48.734Z,7.83
2023-05-23T15:19:16.751Z,6.97
2023-05-23T15:21:50.341Z,7.20
2023-05-23T15:24:19.305Z,7.00
2023-05-23T15:26:47.166Z,6.90
2023-05-23T15:29:17.973Z,6.83
2023-05-23T15:31:47.186Z,6.50
2023-05-23T15:34:15.157Z,6.63
2023-05-23T15:36:43.070Z,6.00
2023-05-23T15:39:11.775Z,5.73
2023-05-23T15:41:39.711Z,6.27
2023-05-23T15:44:07.611Z,6.20
2023-05-23T15:46:36.839Z,5.20
2023-05-23T15:49:17.598Z,5.77
2023-05-23T15:51:53.200Z,5.73
2023-05-23T15:54:21.386Z,5.80
2023-05-23T15:56:49.276Z,5.20
2023-05-23T15:59:17.082Z,5.90
2023-05-23T16:01:45.240Z,5.20
2023-05-23T16:04:14.564Z,5.73
2023-05-23T16:06:42.466Z,5.60
2023-05-23T16:09:10.907Z,4.80
2023-05-23T16:11:38.750Z,5.17
2023-05-23T16:14:07.084Z,4.83
2023-05-23T16:16:35.402Z,5.57
2023-05-23T16:19:04.093Z,5.63
2023-05-23T16:21:33.401Z,5.10
2023-05-23T16:24:01.278Z,5.20
2023-05-23T16:26:29.153Z,5.13
2023-05-23T16:28:56.977Z,4.50
2023-05-23T16:31:28.177Z,3.70
2023-05-23T16:33:56.265Z,4.13
2023-05-23T16:36:24.199Z,3.43
2023-05-23T16:38:55.407Z,3.50
2023-05-23T16:41:23.674Z,4.10
2023-05-23T16:43:51.576Z,3.90
2023-05-23T16:46:22.063Z,3.37
2023-05-23T16:48:50.055Z,3.57
2023-05-23T16:51:17.889Z,3.03
2023-05-23T16:53:45.700Z,3.90
2023-05-23T16:56:14.993Z,4.50
2023-05-23T16:58:42.819Z,3.57
2023-05-23T17:01:10.916Z,2.80
2023-05-23T17:03:39.379Z,2.63
2023-05-23T17:06:07.556Z,2.80
2023-05-23T17:08:35.345Z,2.70
2023-05-23T17:11:03.177Z,2.80
2023-05-23T17:13:33.028Z,3.40
2023-05-23T17:16:01.305Z,2.80
2023-05-23T17:18:29.225Z,3.27
2023-05-23T17:20:57.119Z,2.70
2023-05-23T17:23:25.053Z,2.70
2023-05-23T17:25:52.827Z,2.80
2023-05-23T17:28:20.608Z,1.87
2023-05-23T17:30:51.491Z,2.30
2023-05-23T17:33:19.550Z,2.13
2023-05-23T17:35:47.666Z,1.97
2023-05-23T17:38:15.814Z,2.23
2023-05-23T17:40:43.852Z,2.43
2023-05-23T17:43:13.155Z,2.20
2023-05-23T17:45:41.389Z,2.30
2023-05-23T17:48:11.322Z,2.40
2023-05-23T17:50:39.291Z,2.60
2023-05-23T17:53:07.759Z,2.37
2023-05-23T17:55:35.614Z,2.10
2023-05-23T17:58:03.425Z,2.03
2023-05-23T18:00:34.034Z,1.87
2023-05-23T18:03:02.418Z,2.10
2023-05-23T18:05:31.621Z,1.80
2023-05-23T18:07:59.470Z,1.50
2023-05-23T18:10:27.374Z,1.77
2023-05-23T18:12:55.180Z,1.67
2023-05-23T18:15:24.110Z,1.63
2023-05-23T18:17:55.335Z,1.60
2023-05-23T18:20:23.218Z,2.03
2023-05-23T18:22:54.534Z,2.30
2023-05-23T18:25:27.194Z,1.90
2023-05-23T18:27:56.010Z,2.03
2023-05-23T18:30:23.828Z,1.80
2023-05-23T18:32:51.915Z,1.80
2023-05-23T18:35:20.577Z,1.80
2023-05-23T18:37:48.984Z,1.93
2023-05-23T18:40:18.353Z,1.87
2023-05-23T18:42:47.262Z,1.70
2023-05-23T18:45:15.125Z,2.23
2023-05-23T18:47:43.026Z,1.70
2023-05-23T18:50:11.902Z,1.83
2023-05-23T18:52:39.783Z,1.87
2023-05-23T18:55:08.550Z,1.97
2023-05-23T18:57:37.937Z,2.10
2023-05-23T19:00:07.276Z,1.93
2023-05-23T19:02:35.192Z,2.07
2023-05-23T19:05:03.344Z,2.50
2023-05-23T19:07:31.182Z,1.50
2023-05-23T19:09:58.966Z,1.80
2023-05-23T19:12:28.333Z,1.90
2023-05-23T19:14:58.503Z,2.13
2023-05-23T19:17:26.332Z,1.90
2023-05-23T19:19:54.326Z,2.00
2023-05-23T19:22:22.119Z,1.70
2023-05-23T19:24:50.031Z,1.77
2023-05-23T19:27:17.891Z,1.77
2023-05-23T19:29:45.851Z,1.83
2023-05-23T19:32:15.180Z,1.70
2023-05-23T19:34:43.432Z,2.13
2023-05-23T19:37:11.363Z,2.13
2023-05-23T19:39:42.646Z,1.90
2023-05-23T19:42:10.458Z,2.17
2023-05-23T19:44:38.302Z,2.10
2023-05-23T19:47:06.558Z,1.93
2023-05-23T19:49:35.836Z,2.10
2023-05-23T19:52:03.705Z,1.93
2023-05-23T19:54:31.870Z,2.10
2023-05-23T19:56:59.936Z,1.90
2023-05-23T19:59:27.717Z,1.80
2023-05-23T20:01:55.717Z,1.87
2023-05-23T20:04:25.002Z,1.87
2023-05-23T20:06:54.151Z,2.00
2023-05-23T20:09:22.164Z,2.40
2023-05-23T20:11:49.997Z,2.30
2023-05-23T20:14:17.897Z,2.03
2023-05-23T20:16:45.923Z,2.03
2023-05-23T20:19:13.738Z,2.10
2023-05-23T20:21:42.114Z,2.07
2023-05-23T20:24:12.604Z,1.87
2023-05-23T20:26:40.456Z,2.47
2023-05-23T20:29:08.358Z,2.67
2023-05-23T20:31:36.258Z,2.30
2023-05-23T20:34:04.118Z,2.03
2023-05-23T20:36:33.097Z,1.90
2023-05-23T20:39:01.423Z,2.50
2023-05-23T20:41:30.704Z,1.87
2023-05-23T20:44:00.184Z,1.80
2023-05-23T20:46:28.168Z,2.27
2023-05-23T20:48:57.364Z,2.40
2023-05-23T20:51:25.213Z,2.30
2023-05-23T20:53:53.161Z,2.40
2023-05-23T20:56:20.983Z,2.27
2023-05-23T20:58:50.163Z,2.40
2023-05-23T21:01:18.019Z,1.97
2023-05-23T21:03:45.848Z,2.30
2023-05-23T21:06:13.657Z,2.30
2023-05-23T21:08:41.454Z,2.10
2023-05-23T21:11:09.258Z,2.03
2023-05-23T21:13:39.612Z,2.30
2023-05-23T21:16:12.422Z,2.23
2023-05-23T21:18:40.355Z,2.60
2023-05-23T21:21:08.183Z,2.70
2023-05-23T21:23:36.022Z,2.60
2023-05-23T21:26:03.958Z,2.90
2023-05-23T21:28:31.865Z,2.40
2023-05-23T21:31:00.323Z,2.47
2023-05-23T21:33:29.565Z,2.80
2023-05-23T21:35:59.354Z,2.40
2023-05-23T21:38:29.408Z,2.40
2023-05-23T21:40:57.274Z,2.63
2023-05-23T21:43:25.110Z,2.70
2023-05-23T21:45:52.916Z,2.30
2023-05-23T21:48:20.850Z,2.03
2023-05-23T21:50:50.229Z,2.30
2023-05-23T21:53:18.186Z,2.40
2023-05-23T21:55:46.057Z,2.73
2023-05-23T21:58:13.870Z,2.30
2023-05-23T22:00:43.319Z,2.63
2023-05-23T22:03:11.465Z,2.40
2023-05-23T22:05:39.337Z,2.33
2023-05-23T22:08:08.669Z,2.47
2023-05-23T22:10:36.991Z,2.40
2023-05-23T22:13:05.249Z,2.17
2023-05-23T22:15:35.158Z,2.27
2023-05-23T22:18:03.794Z,2.33
2023-05-23T22:20:34.037Z,2.50
2023-05-23T22:23:03.034Z,2.50
2023-05-23T22:25:35.097Z,2.07
2023-05-23T22:28:02.989Z,2.23
2023-05-23T22:30:30.819Z,2.03
2023-05-23T22:33:01.591Z,2.43
2023-05-23T22:35:29.480Z,1.90
2023-05-23T22:37:57.277Z,2.73
2023-05-23T22:40:25.069Z,2.60
2023-05-23T22:42:54.184Z,2.03
2023-05-23T22:45:22.112Z,2.30
2023-05-23T22:47:50.602Z,2.77
2023-05-23T22:50:18.705Z,1.90
2023-05-23T22:52:48.247Z,2.40
2023-05-23T22:55:16.313Z,2.20
2023-05-23T22:57:44.064Z,2.07
2023-05-23T23:02:54.922Z,2.33
2023-05-23T23:05:22.917Z,2.77
2023-05-23T23:07:50.740Z,2.47
2023-05-23T23:10:18.597Z,2.07
2023-05-23T23:12:46.406Z,2.13
2023-05-23T23:15:14.212Z,2.20
2023-05-23T23:17:42.026Z,2.00
2023-05-23T23:20:12.461Z,2.00
2023-05-23T23:22:40.802Z,2.67
2023-05-23T23:25:10.564Z,1.90
2023-05-23T23:27:38.454Z,1.80
2023-05-23T23:30:07.654Z,2.10
2023-05-23T23:32:35.661Z,1.80
2023-05-23T23:35:03.554Z,2.30
2023-05-23T23:37:32.731Z,2.10
2023-05-23T23:40:00.591Z,1.87
2023-05-23T23:42:28.451Z,2.03
2023-05-23T23:44:56.249Z,2.43
2023-05-23T23:47:24.033Z,2.40
2023-05-23T23:49:51.838Z,2.10
2023-05-23T23:52:19.638Z,1.93
2023-05-23T23:54:48.827Z,1.90
2023-05-23T23:57:16.620Z,2.23
2023-05-23T23:59:45.021Z,2.10
